Hovedside
METAR-TAF:

METAR-TAF

Lufthavner :

Vidsel, Sverige

breddegrad: 65-52N, lengdegrad: 020-08E, høyde over havet: 180 m

Gjeldene værobservasjon

Denne rapporten ble laget for 13 minutter siden, klokken 01:20 UTC
Vind 3 kt fra Nordvest
Temperatur -3°C
Luftfuktighet 93%
Trykk 1015 hPa
Sikt 10 km eller mer

METAR: ESPE 110120Z AUTO 32003KT 9999 OVC032/// M03/M04 Q1015

Tid: 02:33 (01:33 UTC)

Varsel

Denne rapporten ble laget for 14 timer og 18 minutter siden, klokken 11:15 UTC
Varsel gyldig fra 10. klokken 12 UTC til 10. klokken 15 UTC
Vind 5 kt fra Nord
Sikt: 5000 m
Brutte skyer i en høyde av 1500 ft
lett snø
Midlertidig
fra 10. klokken 12 UTC til 10. klokken 15 UTC
Sikt: 1500 m
i en høyde av 800 ft
snø

TAF: ESPE 101115Z 1012/1015 36005KT 5000 -SN BKN015 TEMPO 1012/1015 1500 SN VV008 RMK MIL

Værobservasjoner og værvarsel for over 4000 flyplasser (METAR- og TAF-rapporter).

Tilgjengelige stasjoner er representert av de røde og gule prikkene på kartet.

Hold musepekeren over prikken for å se navnet på stasjonen.

Klikk så for å se værobservasjoner og -varsler.

For å forandre kartet kan du klikke på den grønne knappen med svart kryss for å zoome inn, på den grønne knappen med strek for å zoome ut, eller på de grønne pilene for å se tilstøtende kart.


METAR-TAF: